createdAt,value
2022-11-17T00:02:04.312Z,99174.56
2022-11-17T00:04:32.142Z,99175.09
2022-11-17T00:07:00.838Z,99172.53
2022-11-17T00:09:30.102Z,99167.19
2022-11-17T00:12:18.046Z,99145.16
2022-11-17T00:14:50.246Z,99150.59
2022-11-17T00:17:18.239Z,99140.88
2022-11-17T00:20:03.450Z,99140.72
2022-11-17T00:22:34.139Z,99156.56
2022-11-17T00:25:03.380Z,99137.06
2022-11-17T00:27:31.324Z,99131.78
2022-11-17T00:29:59.246Z,99128.31
2022-11-17T00:32:44.744Z,99094.34
2022-11-17T00:35:12.518Z,99108.84
2022-11-17T00:38:04.714Z,99108.84
2022-11-17T00:40:34.041Z,99096.41
2022-11-17T00:43:01.956Z,99092.06
2022-11-17T00:45:29.762Z,99096.50
2022-11-17T00:47:57.663Z,99086.03
2022-11-17T00:50:25.543Z,99096.41
2022-11-17T00:52:53.342Z,99081.44
2022-11-17T00:55:21.313Z,99084.84
2022-11-17T00:57:51.681Z,99090.19
2022-11-17T01:00:21.259Z,99075.16
2022-11-17T01:02:49.068Z,99077.00
2022-11-17T01:05:17.187Z,99079.81
2022-11-17T01:07:46.892Z,99062.38
2022-11-17T01:10:14.818Z,99068.50
2022-11-17T01:12:42.894Z,99066.63
2022-11-17T01:15:13.905Z,99069.19
2022-11-17T01:17:42.938Z,99058.63
2022-11-17T01:20:11.548Z,99058.56
2022-11-17T01:22:39.415Z,99044.59
2022-11-17T01:25:09.765Z,99037.63
2022-11-17T01:27:37.651Z,99023.50
2022-11-17T01:30:06.581Z,99027.06
2022-11-17T01:32:36.253Z,99030.66
2022-11-17T01:35:04.215Z,99006.75
2022-11-17T01:37:32.240Z,99004.88
2022-11-17T01:40:00.006Z,99002.31
2022-11-17T01:42:28.555Z,98993.63
2022-11-17T01:45:06.354Z,98999.59
2022-11-17T01:47:45.128Z,98994.31
2022-11-17T01:50:25.069Z,98988.00
2022-11-17T01:52:56.391Z,98992.31
2022-11-17T01:55:26.897Z,99000.31
2022-11-17T01:57:59.599Z,98982.63
2022-11-17T02:00:28.365Z,98984.31
2022-11-17T02:02:58.066Z,98991.31
2022-11-17T02:05:40.947Z,98986.13
2022-11-17T02:08:12.431Z,98977.56
2022-11-17T02:10:41.280Z,98962.47
2022-11-17T02:13:10.466Z,98964.16
2022-11-17T02:15:38.521Z,98952.13
2022-11-17T02:18:08.359Z,98965.56
2022-11-17T02:21:06.161Z,98968.38
2022-11-17T02:24:08.605Z,98959.13
2022-11-17T02:27:16.586Z,98947.25
2022-11-17T02:29:53.974Z,98937.13
2022-11-17T02:32:30.066Z,98937.22
2022-11-17T02:35:06.188Z,98932.03
2022-11-17T02:37:43.675Z,98915.72
2022-11-17T02:40:19.777Z,98920.13
2022-11-17T02:43:12.006Z,98910.91
2022-11-17T02:45:46.609Z,98892.78
2022-11-17T02:48:19.697Z,98883.19
2022-11-17T02:50:52.568Z,98867.16
2022-11-17T02:53:24.711Z,98862.63
2022-11-17T02:55:54.491Z,98826.97
2022-11-17T02:58:23.550Z,98807.84
2022-11-17T03:01:16.110Z,98804.13
2022-11-17T03:03:57.078Z,98788.66
2022-11-17T03:06:42.301Z,98755.34
2022-11-17T03:09:16.727Z,98759.50
2022-11-17T03:11:49.376Z,98750.94
2022-11-17T03:14:26.538Z,98712.44
2022-11-17T03:17:02.858Z,98692.31
2022-11-17T03:19:39.426Z,98694.84
2022-11-17T03:22:15.602Z,98686.19
2022-11-17T03:24:50.789Z,98659.19
2022-11-17T03:27:25.737Z,98659.00
2022-11-17T03:30:00.139Z,98630.44
2022-11-17T03:32:34.015Z,98638.13
2022-11-17T03:35:07.620Z,98623.25
2022-11-17T03:37:38.437Z,98624.59
2022-11-17T03:40:10.734Z,98617.25
2022-11-17T03:42:43.174Z,98609.44
2022-11-17T03:45:20.085Z,98597.84
2022-11-17T03:47:52.893Z,98597.22
2022-11-17T03:50:29.095Z,98590.94
2022-11-17T03:52:58.403Z,98585.84
2022-11-17T03:55:36.073Z,98584.91
2022-11-17T03:58:08.115Z,98577.94
2022-11-17T04:00:39.904Z,98579.81
2022-11-17T04:03:10.643Z,98566.56
2022-11-17T04:05:39.823Z,98573.78
2022-11-17T04:08:07.885Z,98549.44
2022-11-17T04:10:56.518Z,98572.09
2022-11-17T04:13:42.187Z,98553.47
2022-11-17T04:16:10.890Z,98561.75
2022-11-17T04:18:40.199Z,98545.28
2022-11-17T04:21:10.950Z,98551.97
2022-11-17T04:23:38.873Z,98546.13
2022-11-17T04:26:24.274Z,98542.56
2022-11-17T04:29:00.987Z,98551.41
2022-11-17T04:31:42.555Z,98531.38
2022-11-17T04:34:13.047Z,98547.16
2022-11-17T04:36:44.369Z,98527.13
2022-11-17T04:39:13.714Z,98512.59
2022-11-17T04:42:03.389Z,98502.25
2022-11-17T04:44:33.279Z,98490.88
2022-11-17T04:47:03.761Z,98511.00
2022-11-17T04:49:36.866Z,98478.81
2022-11-17T04:52:05.012Z,98478.66
2022-11-17T04:54:33.094Z,98494.63
2022-11-17T04:57:06.742Z,98474.59
2022-11-17T04:59:41.102Z,98477.22
2022-11-17T05:02:10.567Z,98488.69
2022-11-17T05:04:58.580Z,98483.78
2022-11-17T05:07:29.756Z,98470.44
2022-11-17T05:10:00.301Z,98494.22
2022-11-17T05:12:46.325Z,98496.22
2022-11-17T05:15:35.363Z,98489.44
2022-11-17T05:18:03.684Z,98472.81
2022-11-17T05:20:35.144Z,98492.19
2022-11-17T05:23:20.905Z,98484.28
2022-11-17T05:25:55.828Z,98479.97
2022-11-17T05:28:26.071Z,98490.66
2022-11-17T05:30:57.039Z,98494.22
2022-11-17T05:33:27.008Z,98497.97
2022-11-17T05:35:59.136Z,98484.25
2022-11-17T05:38:32.716Z,98485.94
2022-11-17T05:41:09.252Z,98449.31
2022-11-17T05:43:42.034Z,98464.34
2022-11-17T05:46:11.235Z,98466.13
2022-11-17T05:48:43.509Z,98479.38
2022-11-17T05:51:13.299Z,98446.28
2022-11-17T05:53:42.718Z,98453.06
2022-11-17T05:56:23.943Z,98439.34
2022-11-17T05:58:56.161Z,98439.69
2022-11-17T06:01:28.048Z,98460.56
2022-11-17T06:04:03.815Z,98442.25
2022-11-17T06:06:36.673Z,98448.34
2022-11-17T06:09:05.826Z,98439.88
2022-11-17T06:11:39.664Z,98446.84
2022-11-17T06:14:10.581Z,98441.78
2022-11-17T06:16:46.935Z,98443.44
2022-11-17T06:19:23.084Z,98425.63
2022-11-17T06:22:11.665Z,98454.19
2022-11-17T06:24:41.759Z,98448.72
2022-11-17T06:27:10.837Z,98435.00
2022-11-17T06:29:43.885Z,98435.00
2022-11-17T06:32:13.267Z,98436.72
2022-11-17T06:34:43.573Z,98426.19
2022-11-17T06:37:13.151Z,98438.50
2022-11-17T06:39:41.215Z,98429.25
2022-11-17T06:42:12.306Z,98425.53
2022-11-17T06:44:42.802Z,98431.63
2022-11-17T06:47:14.731Z,98412.47
2022-11-17T06:49:42.729Z,98424.69
2022-11-17T06:52:18.746Z,98426.53
2022-11-17T06:54:47.717Z,98414.50
2022-11-17T06:57:17.024Z,98418.56
2022-11-17T06:59:46.487Z,98416.78
2022-11-17T07:02:14.614Z,98422.97
2022-11-17T07:04:42.602Z,98421.88
2022-11-17T07:07:13.210Z,98431.63
2022-11-17T07:09:42.725Z,98415.75
2022-11-17T07:12:10.687Z,98400.91
2022-11-17T07:14:38.513Z,98406.19
2022-11-17T07:17:07.713Z,98424.50
2022-11-17T07:19:35.786Z,98403.63
2022-11-17T07:22:09.260Z,98400.06
2022-11-17T07:24:40.782Z,98405.78
2022-11-17T07:27:08.802Z,98392.94
2022-11-17T07:29:36.916Z,98402.63
2022-11-17T07:32:06.251Z,98396.31
2022-11-17T07:34:34.210Z,98387.38
2022-11-17T07:37:02.305Z,98403.63
2022-11-17T07:39:30.321Z,98401.78
2022-11-17T07:41:59.760Z,98396.50
2022-11-17T07:44:47.026Z,98389.16
2022-11-17T07:47:16.167Z,98401.94
2022-11-17T07:49:45.651Z,98421.78
2022-11-17T07:52:13.874Z,98404.41
2022-11-17T07:54:41.902Z,98402.63
2022-11-17T07:57:15.955Z,98407.03
2022-11-17T07:59:48.047Z,98409.75
2022-11-17T08:02:16.161Z,98392.53
2022-11-17T08:04:44.071Z,98400.16
2022-11-17T08:07:17.779Z,98403.06
2022-11-17T08:09:45.686Z,98406.28
2022-11-17T08:12:14.951Z,98410.78
2022-11-17T08:14:46.937Z,98409.94
2022-11-17T08:17:17.584Z,98398.06
2022-11-17T08:19:49.089Z,98393.13
2022-11-17T08:22:17.041Z,98411.44
2022-11-17T08:24:45.052Z,98406.19
2022-11-17T08:27:15.991Z,98413.97
2022-11-17T08:29:43.974Z,98414.72
2022-11-17T08:32:13.938Z,98409.06
2022-11-17T08:34:42.107Z,98413.97
2022-11-17T08:37:10.141Z,98401.00
2022-11-17T08:39:38.870Z,98412.47
2022-11-17T08:42:06.825Z,98405.50
2022-11-17T08:44:36.402Z,98409.75
2022-11-17T08:47:07.323Z,98407.03
2022-11-17T08:49:35.532Z,98404.97
2022-11-17T08:52:03.650Z,98401.69
2022-11-17T08:54:34.001Z,98413.81
2022-11-17T08:57:01.952Z,98406.19
2022-11-17T08:59:32.449Z,98399.91
2022-11-17T09:02:01.837Z,98399.91
2022-11-17T09:04:34.291Z,98418.38
2022-11-17T09:07:02.187Z,98427.13
2022-11-17T09:09:31.704Z,98418.38
2022-11-17T09:12:00.089Z,98428.06
2022-11-17T09:14:28.353Z,98411.25
2022-11-17T09:16:56.109Z,98416.44
2022-11-17T09:19:25.354Z,98426.81
2022-11-17T09:21:53.306Z,98416.03
2022-11-17T09:24:21.358Z,98429.19
2022-11-17T09:26:52.318Z,98414.44
2022-11-17T09:29:20.269Z,98414.72
2022-11-17T09:31:48.376Z,98413.59
2022-11-17T09:34:16.575Z,98416.13
2022-11-17T09:36:48.986Z,98410.69
2022-11-17T09:39:17.977Z,98422.13
2022-11-17T09:41:48.180Z,98422.72
2022-11-17T09:44:39.660Z,98433.06
2022-11-17T09:47:20.876Z,98420.25
2022-11-17T09:49:59.049Z,98432.56
2022-11-17T09:52:34.474Z,98425.53
2022-11-17T09:55:05.992Z,98434.63
2022-11-17T09:57:39.981Z,98440.38
2022-11-17T10:00:15.126Z,98438.00
2022-11-17T10:02:43.923Z,98436.88
2022-11-17T10:05:16.877Z,98443.94
2022-11-17T10:07:50.541Z,98443.50
2022-11-17T10:10:23.714Z,98440.50
2022-11-17T10:12:58.338Z,98443.00
2022-11-17T10:15:30.643Z,98452.03
2022-11-17T10:17:58.442Z,98443.13
2022-11-17T10:20:27.498Z,98442.38
2022-11-17T10:22:57.878Z,98432.22
2022-11-17T10:25:38.422Z,98433.91
2022-11-17T10:28:08.803Z,98451.66
2022-11-17T10:30:37.068Z,98450.03
2022-11-17T10:33:05.676Z,98457.94
2022-11-17T10:35:35.425Z,98442.81
2022-11-17T10:38:07.502Z,98437.56
2022-11-17T10:40:49.018Z,98436.88
2022-11-17T10:43:26.126Z,98444.69
2022-11-17T10:45:57.632Z,98447.16
2022-11-17T10:48:28.753Z,98447.22
2022-11-17T10:50:58.502Z,98445.75
2022-11-17T10:53:32.508Z,98458.59
2022-11-17T10:56:08.209Z,98466.59
2022-11-17T10:58:58.856Z,98461.81
2022-11-17T11:01:32.709Z,98468.19
2022-11-17T11:04:00.741Z,98468.59
2022-11-17T11:06:30.612Z,98460.78
2022-11-17T11:09:03.227Z,98473.19
2022-11-17T11:11:42.243Z,98469.97
2022-11-17T11:14:23.137Z,98466.81
2022-11-17T11:16:52.039Z,98463.03
2022-11-17T11:19:21.154Z,98479.84
2022-11-17T11:22:07.706Z,98484.16
2022-11-17T11:24:46.189Z,98479.28
2022-11-17T11:27:31.393Z,98477.31
2022-11-17T11:30:03.767Z,98471.94
2022-11-17T11:32:41.969Z,98472.34
2022-11-17T11:35:45.821Z,98468.84
2022-11-17T11:38:28.974Z,98482.41
2022-11-17T11:41:12.583Z,98482.22
2022-11-17T11:43:52.671Z,98475.63
2022-11-17T11:46:27.299Z,98476.97
2022-11-17T11:48:58.240Z,98471.69
2022-11-17T11:51:30.595Z,98482.00
2022-11-17T11:54:03.045Z,98471.22
2022-11-17T11:56:35.872Z,98465.09
2022-11-17T11:59:07.493Z,98467.91
2022-11-17T12:01:44.837Z,98477.31
2022-11-17T12:04:26.611Z,98494.44
2022-11-17T12:07:01.918Z,98488.81
2022-11-17T12:09:56.928Z,98496.78
2022-11-17T12:12:31.869Z,98498.28
2022-11-17T12:15:12.929Z,98495.84
2022-11-17T12:17:59.317Z,98487.47
2022-11-17T12:20:57.034Z,98494.16
2022-11-17T12:23:40.953Z,98505.25
2022-11-17T12:26:09.295Z,98481.63
2022-11-17T12:28:40.241Z,98492.34
2022-11-17T12:31:11.486Z,98499.22
2022-11-17T12:34:27.619Z,98494.44
2022-11-17T12:37:19.401Z,98503.44
2022-11-17T12:39:56.510Z,98498.25
2022-11-17T12:42:24.998Z,98504.75
2022-11-17T12:45:09.158Z,98502.13
2022-11-17T12:47:39.113Z,98507.28
2022-11-17T12:50:49.649Z,98504.63
2022-11-17T12:53:38.874Z,98512.03
2022-11-17T12:56:22.176Z,98507.72
2022-11-17T12:59:14.571Z,98506.88
2022-11-17T13:01:54.523Z,98522.72
2022-11-17T13:04:28.826Z,98521.22
2022-11-17T13:07:01.779Z,98517.47
2022-11-17T13:09:31.496Z,98526.50
2022-11-17T13:12:01.207Z,98528.00
2022-11-17T13:14:29.253Z,98520.28
2022-11-17T13:17:00.091Z,98526.41
2022-11-17T13:19:41.402Z,98535.34
2022-11-17T13:22:16.641Z,98526.81
2022-11-17T13:24:47.301Z,98533.22
2022-11-17T13:27:25.731Z,98527.53
2022-11-17T13:30:12.693Z,98537.25
2022-11-17T13:32:42.713Z,98537.03
2022-11-17T13:35:21.911Z,98542.31
2022-11-17T13:38:06.700Z,98540.25
2022-11-17T13:40:37.254Z,98534.78
2022-11-17T13:43:06.313Z,98537.31
2022-11-17T13:45:34.469Z,98535.03
2022-11-17T13:48:03.774Z,98546.22
2022-11-17T13:50:39.565Z,98544.94
2022-11-17T13:53:26.206Z,98549.16
2022-11-17T13:55:54.372Z,98560.09
2022-11-17T13:58:27.348Z,98562.25
2022-11-17T14:00:57.772Z,98572.53
2022-11-17T14:03:34.399Z,98560.38
2022-11-17T14:06:03.669Z,98562.63
2022-11-17T14:08:33.920Z,98563.78
2022-11-17T14:11:23.412Z,98563.00
2022-11-17T14:13:53.922Z,98563.00
2022-11-17T14:16:26.595Z,98558.69
2022-11-17T14:19:01.649Z,98552.66
2022-11-17T14:21:30.516Z,98571.69
2022-11-17T14:24:12.429Z,98576.75
2022-11-17T14:26:45.364Z,98577.59
2022-11-17T14:29:14.502Z,98576.56
2022-11-17T14:31:43.242Z,98578.44
2022-11-17T14:34:12.988Z,98578.44
2022-11-17T14:36:42.298Z,98584.75
2022-11-17T14:39:18.692Z,98574.41
2022-11-17T14:41:48.653Z,98587.31
2022-11-17T14:44:19.304Z,98595.13
2022-11-17T14:46:47.155Z,98588.91
2022-11-17T14:49:16.732Z,98595.03
2022-11-17T14:51:48.725Z,98595.03
2022-11-17T14:54:16.645Z,98597.47
2022-11-17T14:56:44.613Z,98597.66
2022-11-17T14:59:12.545Z,98589.00
2022-11-17T15:01:41.173Z,98594.28
2022-11-17T15:04:34.367Z,98597.94
2022-11-17T15:06:58.414Z,98592.75
2022-11-17T15:09:26.523Z,98586.47
2022-11-17T15:11:54.468Z,98605.66
2022-11-17T15:14:22.831Z,98604.63
2022-11-17T15:16:56.970Z,98604.44
2022-11-17T15:19:24.967Z,98599.16
2022-11-17T15:21:53.085Z,98597.47
2022-11-17T15:24:23.140Z,98607.78
2022-11-17T15:26:50.906Z,98604.13
2022-11-17T15:29:19.029Z,98624.16
2022-11-17T15:31:47.437Z,98621.63
2022-11-17T15:34:20.218Z,98623.22
2022-11-17T15:36:56.645Z,98627.47
2022-11-17T15:39:26.079Z,98630.94
2022-11-17T15:41:54.092Z,98645.63
2022-11-17T15:44:21.991Z,98644.78
2022-11-17T15:46:49.897Z,98643.84
2022-11-17T15:49:18.230Z,98643.94
2022-11-17T15:51:46.504Z,98646.47
2022-11-17T15:54:20.322Z,98644.78
2022-11-17T15:56:51.080Z,98645.63
2022-11-17T15:59:19.790Z,98662.69
2022-11-17T16:01:47.905Z,98660.91
2022-11-17T16:04:17.028Z,98676.63
2022-11-17T16:06:46.776Z,98702.63
2022-11-17T16:09:15.733Z,98693.09
2022-11-17T16:11:44.124Z,98673.88
2022-11-17T16:14:14.847Z,98678.97
2022-11-17T16:16:48.457Z,98668.25
2022-11-17T16:19:18.920Z,98670.28
2022-11-17T16:21:47.190Z,98657.28
2022-11-17T16:24:15.237Z,98669.34
2022-11-17T16:26:44.914Z,98667.84
2022-11-17T16:29:17.585Z,98687.22
2022-11-17T16:31:47.977Z,98690.38
2022-11-17T16:34:22.815Z,98691.41
2022-11-17T16:36:51.128Z,98674.94
2022-11-17T16:39:20.267Z,98690.38
2022-11-17T16:41:50.138Z,98694.53
2022-11-17T16:44:20.338Z,98703.47
2022-11-17T16:46:49.714Z,98690.66
2022-11-17T16:49:20.027Z,98695.25
2022-11-17T16:51:50.203Z,98682.44
2022-11-17T16:54:18.981Z,98690.84
2022-11-17T16:56:47.297Z,98702.34
2022-11-17T16:59:16.106Z,98704.31
2022-11-17T17:01:46.277Z,98704.31
2022-11-17T17:04:14.202Z,98713.06
2022-11-17T17:06:43.615Z,98713.66
2022-11-17T17:09:14.311Z,98717.41
2022-11-17T17:11:43.113Z,98707.81
2022-11-17T17:14:14.108Z,98719.66
2022-11-17T17:16:43.442Z,98716.28
2022-11-17T17:19:14.129Z,98724.19
2022-11-17T17:21:43.511Z,98729.56
2022-11-17T17:24:11.891Z,98732.09
2022-11-17T17:26:41.319Z,98726.91
2022-11-17T17:29:11.503Z,98740.75
2022-11-17T17:31:41.215Z,98743.41
2022-11-17T17:34:10.190Z,98741.78
2022-11-17T17:36:39.568Z,98749.69
2022-11-17T17:39:08.210Z,98761.94
2022-11-17T17:41:40.995Z,98755.63
2022-11-17T17:44:11.424Z,98758.38
2022-11-17T17:46:39.907Z,98768.72
2022-11-17T17:49:07.994Z,98773.16
2022-11-17T17:51:41.659Z,98771.38
2022-11-17T17:54:15.579Z,98771.25
2022-11-17T17:56:43.691Z,98780.31
2022-11-17T17:59:11.646Z,98780.09
2022-11-17T18:01:40.798Z,98785.38
2022-11-17T18:04:15.327Z,98775.88
2022-11-17T18:06:48.101Z,98795.91
2022-11-17T18:09:19.555Z,98793.41
2022-11-17T18:11:49.804Z,98805.63
2022-11-17T18:14:22.450Z,98806.47
2022-11-17T18:16:51.229Z,98813.63
2022-11-17T18:19:20.004Z,98814.66
2022-11-17T18:21:49.369Z,98809.50
2022-11-17T18:24:17.405Z,98812.22
2022-11-17T18:26:46.434Z,98822.09
2022-11-17T18:29:18.497Z,98825.66
2022-11-17T18:31:55.318Z,98825.84
2022-11-17T18:34:43.605Z,98828.81
2022-11-17T18:37:12.912Z,98830.72
2022-11-17T18:39:43.098Z,98828.09
2022-11-17T18:42:11.143Z,98834.22
2022-11-17T18:44:43.189Z,98831.66
2022-11-17T18:47:11.514Z,98831.16
2022-11-17T18:49:39.380Z,98838.97
2022-11-17T18:52:07.807Z,98841.22
2022-11-17T18:54:37.186Z,98833.66
2022-11-17T18:57:05.044Z,98840.81
2022-11-17T18:59:33.976Z,98835.91
2022-11-17T19:02:02.085Z,98850.75
2022-11-17T19:04:30.637Z,98845.75
2022-11-17T19:06:58.666Z,98852.03
2022-11-17T19:09:28.924Z,98840.66
2022-11-17T19:11:58.476Z,98850.50
2022-11-17T19:14:26.681Z,98840.25
2022-11-17T19:16:55.968Z,98843.91
2022-11-17T19:19:23.907Z,98865.84
2022-11-17T19:21:52.157Z,98869.66
2022-11-17T19:24:20.325Z,98865.16
2022-11-17T19:26:48.339Z,98862.84
2022-11-17T19:29:17.924Z,98867.28
2022-11-17T19:31:47.549Z,98864.63
2022-11-17T19:34:16.311Z,98873.63
2022-11-17T19:36:45.250Z,98883.41
2022-11-17T19:39:14.551Z,98882.56
2022-11-17T19:41:44.116Z,98880.13
2022-11-17T19:44:12.451Z,98881.81
2022-11-17T19:46:42.656Z,98890.66
2022-11-17T19:49:12.761Z,98896.06
2022-11-17T19:51:41.381Z,98899.28
2022-11-17T19:54:11.295Z,98896.25
2022-11-17T19:56:39.410Z,98902.19
2022-11-17T19:59:10.958Z,98913.56
2022-11-17T20:01:45.802Z,98917.13
2022-11-17T20:04:14.319Z,98914.59
2022-11-17T20:06:42.217Z,98925.03
2022-11-17T20:09:12.377Z,98921.72
2022-11-17T20:11:41.254Z,98915.59
2022-11-17T20:14:09.724Z,98919.50
2022-11-17T20:16:38.830Z,98930.72
2022-11-17T20:19:08.221Z,98926.38
2022-11-17T20:21:36.817Z,98925.75
2022-11-17T20:24:04.996Z,98941.06
2022-11-17T20:26:35.203Z,98926.44
2022-11-17T20:29:03.336Z,98937.75
2022-11-17T20:31:33.502Z,98938.53
2022-11-17T20:34:02.958Z,98944.81
2022-11-17T20:36:35.468Z,98942.94
2022-11-17T20:39:07.755Z,98956.19
2022-11-17T20:41:36.062Z,98950.22
2022-11-17T20:44:04.214Z,98956.34
2022-11-17T20:46:34.639Z,98961.44
2022-11-17T20:49:04.974Z,98967.72
2022-11-17T20:51:34.172Z,98963.31
2022-11-17T20:54:03.432Z,98971.97
2022-11-17T20:56:31.379Z,98970.44
2022-11-17T20:58:59.513Z,98984.53
2022-11-17T21:01:28.016Z,98980.25
2022-11-17T21:03:55.984Z,98986.38
2022-11-17T21:06:24.993Z,98992.56
2022-11-17T21:08:54.512Z,98993.50
2022-11-17T21:11:41.780Z,98990.88
2022-11-17T21:14:13.295Z,99003.38
2022-11-17T21:16:45.563Z,98995.56
2022-11-17T21:19:23.291Z,98990.75
2022-11-17T21:21:53.352Z,99001.13
2022-11-17T21:24:22.856Z,99000.97
2022-11-17T21:26:51.799Z,99004.53
2022-11-17T21:29:19.900Z,98994.84
2022-11-17T21:31:48.144Z,99014.22
2022-11-17T21:34:19.792Z,99004.53
2022-11-17T21:36:47.860Z,99009.88
2022-11-17T21:39:18.669Z,99011.81
2022-11-17T21:41:48.849Z,99010.25
2022-11-17T21:44:17.093Z,99005.16
2022-11-17T21:46:50.182Z,99015.22
2022-11-17T21:49:18.317Z,99019.94
2022-11-17T21:51:48.121Z,99020.78
2022-11-17T21:54:17.206Z,99023.19
2022-11-17T21:56:46.127Z,99023.19
2022-11-17T21:59:20.080Z,99013.88
2022-11-17T22:01:50.332Z,99023.25
2022-11-17T22:04:21.106Z,99029.44
2022-11-17T22:06:49.157Z,99022.63
2022-11-17T22:09:19.431Z,99032.22
2022-11-17T22:11:47.497Z,99032.41
2022-11-17T22:14:19.222Z,99023.81
2022-11-17T22:16:48.943Z,99037.13
2022-11-17T22:19:18.769Z,99041.53
2022-11-17T22:21:49.111Z,99031.41
2022-11-17T22:24:17.075Z,99041.47
2022-11-17T22:26:45.810Z,99042.63
2022-11-17T22:29:18.336Z,99039.69
2022-11-17T22:31:47.307Z,99039.69
2022-11-17T22:34:16.660Z,99042.31
2022-11-17T22:36:45.311Z,99037.22
2022-11-17T22:39:13.489Z,99044.25
2022-11-17T22:41:41.834Z,99043.31
2022-11-17T22:44:13.337Z,99043.53
2022-11-17T22:46:44.000Z,99056.56
2022-11-17T22:49:12.018Z,99046.81
2022-11-17T22:51:57.416Z,99042.31
2022-11-17T22:54:25.282Z,99058.88
2022-11-17T22:56:53.137Z,99053.63
2022-11-17T22:59:23.373Z,99057.94
2022-11-17T23:01:52.766Z,99056.25
2022-11-17T23:04:23.038Z,99064.91
2022-11-17T23:06:51.322Z,99059.66
2022-11-17T23:09:22.278Z,99053.47
2022-11-17T23:11:50.485Z,99069.16
2022-11-17T23:14:21.475Z,99073.66
2022-11-17T23:16:49.336Z,99072.47
2022-11-17T23:19:21.523Z,99067.47
2022-11-17T23:21:49.533Z,99081.22
2022-11-17T23:24:20.209Z,99081.22
2022-11-17T23:26:48.229Z,99079.59
2022-11-17T23:29:16.486Z,99088.25
2022-11-17T23:31:44.499Z,99091.75
2022-11-17T23:34:12.393Z,99089.03
2022-11-17T23:36:41.701Z,99093.31
2022-11-17T23:39:09.736Z,99089.75
2022-11-17T23:41:37.620Z,99090.59
2022-11-17T23:44:05.895Z,99086.41
2022-11-17T23:46:34.989Z,99095.56
2022-11-17T23:49:05.675Z,99092.44
2022-11-17T23:51:33.785Z,99105.59
2022-11-17T23:54:03.793Z,99097.72
2022-11-17T23:56:33.676Z,99101.97
2022-11-17T23:59:01.624Z,99105.38
